createdAt,value
2019-03-03T00:01:58.246Z,100581.52
2019-03-03T00:04:26.942Z,100575.29
2019-03-03T00:06:55.596Z,100580.58
2019-03-03T00:09:24.223Z,100581.97
2019-03-03T00:11:52.972Z,100571.39
2019-03-03T00:14:21.606Z,100575.36
2019-03-03T00:16:50.291Z,100564.64
2019-03-03T00:19:19.039Z,100555.27
2019-03-03T00:22:06.974Z,100549.01
2019-03-03T00:24:35.507Z,100556.59
2019-03-03T00:27:04.193Z,100545.08
2019-03-03T00:29:32.818Z,100540.94
2019-03-03T00:32:01.380Z,100543.72
2019-03-03T00:34:29.940Z,100528.68
2019-03-03T00:40:06.726Z,100529.55
2019-03-03T00:45:50.506Z,100530.76
2019-03-03T00:48:38.261Z,100521.36
2019-03-03T00:51:25.923Z,100517.45
2019-03-03T00:54:13.659Z,100521.36
2019-03-03T00:59:50.396Z,100510.72
2019-03-03T01:05:47.979Z,100520.14
2019-03-03T01:08:35.935Z,100513.61
2019-03-03T01:11:23.706Z,100519.39
2019-03-03T01:19:25.976Z,100511.02
2019-03-03T01:27:19.330Z,100506.08
2019-03-03T01:29:47.893Z,100508.66
2019-03-03T01:32:16.400Z,100500.44
2019-03-03T01:34:44.882Z,100503.23
2019-03-03T01:37:13.547Z,100503.03
2019-03-03T01:39:42.086Z,100495.91
2019-03-03T01:42:11.027Z,100489.45
2019-03-03T01:44:39.470Z,100488.13
2019-03-03T01:49:43.275Z,100483.52
2019-03-03T01:52:11.851Z,100481.91
2019-03-03T01:54:40.409Z,100478.63
2019-03-03T01:57:09.035Z,100475.31
2019-03-03T01:59:38.023Z,100472.38
2019-03-03T02:02:06.436Z,100466.74
2019-03-03T02:04:35.061Z,100459.29
2019-03-03T02:07:03.942Z,100456.50
2019-03-03T02:12:08.173Z,100449.24
2019-03-03T02:14:36.790Z,100455.88
2019-03-03T02:19:54.585Z,100450.09
2019-03-03T02:22:23.134Z,100448.77
2019-03-03T02:24:51.784Z,100444.66
2019-03-03T02:27:20.474Z,100444.31
2019-03-03T02:29:49.051Z,100440.69
2019-03-03T02:32:17.680Z,100441.58
2019-03-03T02:34:46.188Z,100436.94
2019-03-03T02:37:14.665Z,100438.45
2019-03-03T02:39:43.255Z,100435.95
2019-03-03T02:42:11.986Z,100435.47
2019-03-03T02:44:40.633Z,100430.52
2019-03-03T02:47:49.113Z,100427.33
2019-03-03T02:50:17.685Z,100420.22
2019-03-03T02:53:26.154Z,100420.22
2019-03-03T02:55:54.795Z,100418.90
2019-03-03T02:58:23.359Z,100421.25
2019-03-03T03:03:41.097Z,100415.80
2019-03-03T03:06:29.097Z,100413.31
2019-03-03T03:09:16.735Z,100430.70
2019-03-03T03:12:04.380Z,100416.98
2019-03-03T03:14:52.070Z,100405.38
2019-03-03T03:20:18.823Z,100406.92
2019-03-03T03:25:42.051Z,100386.27
2019-03-03T03:28:29.785Z,100389.56
2019-03-03T03:31:17.415Z,100390.59
2019-03-03T03:34:05.090Z,100379.51
2019-03-03T03:36:52.788Z,100379.17
2019-03-03T03:39:40.508Z,100374.22
2019-03-03T03:45:17.252Z,100364.16
2019-03-03T03:50:54.007Z,100343.50
2019-03-03T03:53:41.956Z,100344.48
2019-03-03T03:56:29.671Z,100339.68
2019-03-03T03:59:17.340Z,100330.93
2019-03-03T04:04:44.113Z,100332.91
2019-03-03T04:07:31.747Z,100339.38
2019-03-03T04:13:08.518Z,100329.61
2019-03-03T04:15:56.137Z,100321.51
2019-03-03T04:18:44.109Z,100317.56
2019-03-03T04:24:20.884Z,100302.98
2019-03-03T04:32:36.439Z,100291.08
2019-03-03T04:35:44.938Z,100283.81
2019-03-03T04:38:32.619Z,100288.46
2019-03-03T04:41:20.354Z,100286.48
2019-03-03T04:44:08.028Z,100287.47
2019-03-03T04:46:55.716Z,100281.20
2019-03-03T04:49:43.394Z,100285.48
2019-03-03T04:55:06.541Z,100282.20
2019-03-03T04:57:54.268Z,100279.86
2019-03-03T05:03:31.088Z,100277.55
2019-03-03T05:09:07.872Z,100274.91
2019-03-03T05:12:34.161Z,100282.86
2019-03-03T05:15:21.757Z,100277.24
2019-03-03T05:23:11.180Z,100270.28
2019-03-03T05:25:40.002Z,100265.95
2019-03-03T05:28:08.648Z,100255.84
2019-03-03T05:30:37.247Z,100245.73
2019-03-03T05:33:06.166Z,100246.41
2019-03-03T05:35:34.740Z,100258.68
2019-03-03T05:38:03.370Z,100249.55
2019-03-03T05:40:31.946Z,100248.70
2019-03-03T05:43:00.522Z,100247.37
2019-03-03T05:45:29.120Z,100249.38
2019-03-03T05:47:57.649Z,100239.59
2019-03-03T05:50:26.247Z,100234.46
2019-03-03T05:52:55.053Z,100228.13
2019-03-03T05:55:23.726Z,100230.13
2019-03-03T05:57:52.637Z,100229.14
2019-03-03T06:00:21.267Z,100225.00
2019-03-03T06:02:50.215Z,100227.79
2019-03-03T06:05:18.844Z,100230.12
2019-03-03T06:07:47.383Z,100221.83
2019-03-03T06:10:15.995Z,100215.53
2019-03-03T06:12:44.956Z,100217.83
2019-03-03T06:18:04.209Z,100207.02
2019-03-03T06:20:32.996Z,100206.37
2019-03-03T06:23:01.675Z,100207.17
2019-03-03T06:25:30.566Z,100207.34
2019-03-03T06:27:59.413Z,100195.03
2019-03-03T06:30:28.105Z,100196.03
2019-03-03T06:33:36.750Z,100198.49
2019-03-03T06:36:05.513Z,100191.83
2019-03-03T06:38:34.132Z,100189.84
2019-03-03T06:41:03.117Z,100184.33
2019-03-03T06:43:31.846Z,100184.13
2019-03-03T06:46:00.847Z,100185.08
2019-03-03T06:51:38.301Z,100173.75
2019-03-03T06:54:07.101Z,100169.72
2019-03-03T06:56:35.717Z,100171.17
2019-03-03T06:59:04.337Z,100171.99
2019-03-03T07:01:32.878Z,100165.31
2019-03-03T07:04:01.423Z,100162.97
2019-03-03T07:06:30.056Z,100158.27
2019-03-03T07:08:58.702Z,100160.09
2019-03-03T07:11:27.314Z,100158.91
2019-03-03T07:13:55.977Z,100145.41
2019-03-03T07:16:26.327Z,100149.83
2019-03-03T07:18:54.759Z,100150.98
2019-03-03T07:21:23.652Z,100156.41
2019-03-03T07:23:52.140Z,100157.70
2019-03-03T07:26:20.784Z,100155.17
2019-03-03T07:28:49.320Z,100146.81
2019-03-03T07:31:17.900Z,100155.60
2019-03-03T07:36:35.599Z,100170.13
2019-03-03T07:39:44.044Z,100158.64
2019-03-03T07:42:12.628Z,100150.31
2019-03-03T07:44:41.241Z,100141.62
2019-03-03T07:47:09.788Z,100140.77
2019-03-03T07:49:38.555Z,100141.63
2019-03-03T07:52:07.253Z,100137.61
2019-03-03T07:54:35.826Z,100145.86
2019-03-03T07:57:04.307Z,100132.23
2019-03-03T07:59:33.019Z,100126.88
2019-03-03T08:02:01.741Z,100140.12
2019-03-03T08:04:30.489Z,100144.71
2019-03-03T08:06:59.108Z,100143.76
2019-03-03T08:09:28.180Z,100134.02
2019-03-03T08:11:56.794Z,100135.46
2019-03-03T08:14:25.413Z,100135.94
2019-03-03T08:16:53.963Z,100124.02
2019-03-03T08:19:22.965Z,100122.59
2019-03-03T08:21:51.606Z,100114.16
2019-03-03T08:24:20.235Z,100109.55
2019-03-03T08:26:48.785Z,100119.31
2019-03-03T08:29:17.371Z,100117.80
2019-03-03T08:31:46.002Z,100109.18
2019-03-03T08:34:14.557Z,100106.39
2019-03-03T08:36:43.114Z,100105.31
2019-03-03T08:39:11.876Z,100107.05
2019-03-03T08:50:21.668Z,100112.44
2019-03-03T08:53:09.713Z,100120.43
2019-03-03T08:55:57.524Z,100114.55
2019-03-03T08:58:45.189Z,100118.50
2019-03-03T09:01:32.872Z,100110.79
2019-03-03T09:04:20.565Z,100115.19
2019-03-03T09:12:32.581Z,100123.97
2019-03-03T09:15:20.304Z,100116.98
2019-03-03T09:18:08.130Z,100103.87
2019-03-03T09:23:52.066Z,100101.39
2019-03-03T09:26:39.769Z,100107.79
2019-03-03T09:29:27.468Z,100114.27
2019-03-03T09:32:15.237Z,100116.54
2019-03-03T09:35:02.970Z,100112.20
2019-03-03T09:37:50.702Z,100119.33
2019-03-03T09:40:38.377Z,100110.75
2019-03-03T09:53:56.148Z,100114.95
2019-03-03T10:02:07.962Z,100128.62
2019-03-03T10:04:55.905Z,100129.26
2019-03-03T10:07:43.559Z,100118.27
2019-03-03T10:10:52.030Z,100121.44
2019-03-03T10:13:39.745Z,100120.23
2019-03-03T10:16:27.565Z,100125.17
2019-03-03T10:19:15.294Z,100120.56
2019-03-03T10:22:02.969Z,100124.66
2019-03-03T10:24:50.667Z,100124.48
2019-03-03T10:30:46.852Z,100133.17
2019-03-03T10:36:23.647Z,100137.55
2019-03-03T10:42:00.429Z,100130.00
2019-03-03T10:47:23.360Z,100137.96
2019-03-03T10:50:11.070Z,100138.50
2019-03-03T10:52:58.677Z,100134.51
2019-03-03T10:55:46.468Z,100140.44
2019-03-03T10:58:34.076Z,100133.04
2019-03-03T11:01:21.955Z,100132.72
2019-03-03T11:09:54.921Z,100114.88
2019-03-03T11:12:42.613Z,100107.77
2019-03-03T11:15:51.128Z,100116.35
2019-03-03T11:18:38.748Z,100127.35
2019-03-03T11:21:26.405Z,100122.64
2019-03-03T11:24:14.024Z,100118.27
2019-03-03T11:27:01.810Z,100110.44
2019-03-03T11:32:24.777Z,100114.70
2019-03-03T11:35:12.529Z,100114.70
2019-03-03T11:38:00.286Z,100104.98
2019-03-03T11:43:37.101Z,100110.31
2019-03-03T11:46:24.746Z,100106.41
2019-03-03T11:51:47.914Z,100112.70
2019-03-03T11:54:35.609Z,100101.36
2019-03-03T12:00:12.450Z,100098.53
2019-03-03T12:03:00.167Z,100097.16
2019-03-03T12:08:27.049Z,100101.06
2019-03-03T12:14:09.244Z,100106.88
2019-03-03T12:17:16.579Z,100108.97
2019-03-03T12:20:04.313Z,100101.18
2019-03-03T12:33:39.256Z,100091.70
2019-03-03T12:39:17.216Z,100080.72
2019-03-03T12:42:04.979Z,100070.58
2019-03-03T12:52:52.120Z,100080.30
2019-03-03T12:58:28.915Z,100077.42
2019-03-03T13:09:19.858Z,100074.43
2019-03-03T13:12:07.587Z,100073.70
2019-03-03T13:14:56.488Z,100061.27
2019-03-03T13:20:40.928Z,100055.08
2019-03-03T13:28:43.197Z,100046.38
2019-03-03T13:31:31.021Z,100041.70
2019-03-03T13:36:54.621Z,100032.00
2019-03-03T13:39:42.495Z,100028.09
2019-03-03T13:48:17.738Z,100026.27
2019-03-03T13:53:44.147Z,100021.69
2019-03-03T13:56:12.899Z,100015.34
2019-03-03T13:58:41.464Z,100012.36
2019-03-03T14:01:10.463Z,100018.55
2019-03-03T14:03:39.061Z,100007.75
2019-03-03T14:06:07.940Z,99998.72
2019-03-03T14:08:37.019Z,100002.41
2019-03-03T14:14:06.132Z,99996.48
2019-03-03T14:16:34.876Z,100006.22
2019-03-03T14:19:03.428Z,99997.80
2019-03-03T14:21:32.282Z,100002.33
2019-03-03T14:24:00.924Z,100002.09
2019-03-03T14:26:29.468Z,99998.91
2019-03-03T14:28:58.118Z,99995.84
2019-03-03T14:31:26.699Z,99996.23
2019-03-03T14:33:55.304Z,99997.25
2019-03-03T14:36:23.904Z,99993.96
2019-03-03T14:38:52.431Z,99984.81
2019-03-03T14:41:21.118Z,99998.14
2019-03-03T14:43:49.619Z,99987.02
2019-03-03T14:46:18.180Z,99992.87
2019-03-03T14:48:46.776Z,99995.45
2019-03-03T14:51:15.387Z,99991.95
2019-03-03T14:53:43.928Z,99988.72
2019-03-03T14:56:12.614Z,99988.28
2019-03-03T14:58:41.145Z,99985.59
2019-03-03T15:01:09.795Z,99977.65
2019-03-03T15:03:38.405Z,99985.81
2019-03-03T15:06:06.949Z,99977.05
2019-03-03T15:08:35.511Z,99986.73
2019-03-03T15:11:04.151Z,99980.66
2019-03-03T15:13:33.168Z,99979.84
2019-03-03T15:16:01.853Z,99988.73
2019-03-03T15:18:30.729Z,99985.13
2019-03-03T15:20:59.588Z,99990.06
2019-03-03T15:23:28.113Z,99987.16
2019-03-03T15:25:56.810Z,99986.61
2019-03-03T15:29:06.665Z,99993.66
2019-03-03T15:31:37.957Z,99978.53
2019-03-03T15:34:45.950Z,99974.81
2019-03-03T15:42:59.872Z,99966.78
2019-03-03T15:46:08.555Z,99956.44
2019-03-03T15:48:37.149Z,99957.14
2019-03-03T15:51:05.845Z,99948.91
2019-03-03T15:53:34.392Z,99947.25
2019-03-03T15:56:03.094Z,99940.46
2019-03-03T15:58:31.681Z,99943.95
2019-03-03T16:01:00.442Z,99937.56
2019-03-03T16:03:29.057Z,99931.41
2019-03-03T16:05:57.571Z,99926.39
2019-03-03T16:08:26.266Z,99925.52
2019-03-03T16:10:54.865Z,99930.13
2019-03-03T16:13:23.887Z,99928.69
2019-03-03T16:15:52.488Z,99916.66
2019-03-03T16:18:21.077Z,99922.72
2019-03-03T16:23:37.177Z,99910.60
2019-03-03T16:26:25.113Z,99907.75
2019-03-03T16:28:53.779Z,99900.03
2019-03-03T16:31:22.346Z,99896.91
2019-03-03T16:33:50.936Z,99892.73
2019-03-03T16:53:33.073Z,99878.30
2019-03-03T16:56:01.642Z,99882.62
2019-03-03T16:58:30.301Z,99878.12
2019-03-03T17:00:58.991Z,99876.28
2019-03-03T17:03:27.574Z,99875.14
2019-03-03T17:05:56.033Z,99875.23
2019-03-03T17:08:24.970Z,99875.55
2019-03-03T17:10:53.907Z,99876.89
2019-03-03T17:13:22.530Z,99868.48
2019-03-03T17:15:51.135Z,99867.56
2019-03-03T17:18:19.709Z,99877.90
2019-03-03T17:20:48.400Z,99872.39
2019-03-03T17:23:17.141Z,99868.20
2019-03-03T17:25:45.706Z,99866.42
2019-03-03T17:28:14.404Z,99867.25
2019-03-03T17:30:42.999Z,99863.15
2019-03-03T17:33:11.625Z,99867.33
2019-03-03T17:35:40.299Z,99869.63
2019-03-03T17:38:08.934Z,99867.25
2019-03-03T17:40:37.952Z,99868.70
2019-03-03T17:43:09.541Z,99874.55
2019-03-03T17:45:38.131Z,99866.00
2019-03-03T17:48:06.777Z,99862.64
2019-03-03T17:50:35.393Z,99872.28
2019-03-03T17:53:04.010Z,99861.69
2019-03-03T17:55:32.644Z,99850.34
2019-03-03T17:58:01.392Z,99851.58
2019-03-03T18:00:49.437Z,99846.16
2019-03-03T18:03:18.057Z,99846.44
2019-03-03T18:05:46.566Z,99843.49
2019-03-03T18:08:15.186Z,99833.95
2019-03-03T18:10:43.817Z,99833.34
2019-03-03T18:13:12.332Z,99832.33
2019-03-03T18:15:40.922Z,99832.94
2019-03-03T18:18:09.578Z,99835.23
2019-03-03T18:20:38.159Z,99825.50
2019-03-03T18:23:06.867Z,99830.22
2019-03-03T18:25:35.410Z,99835.36
2019-03-03T18:28:04.039Z,99821.22
2019-03-03T18:30:32.559Z,99829.20
2019-03-03T18:33:01.174Z,99825.50
2019-03-03T18:35:29.834Z,99813.22
2019-03-03T18:37:58.491Z,99824.16
2019-03-03T18:41:07.240Z,99819.29
2019-03-03T18:43:36.021Z,99821.50
2019-03-03T18:46:05.825Z,99816.49
2019-03-03T18:48:35.051Z,99815.16
2019-03-03T18:51:03.559Z,99824.93
2019-03-03T18:53:32.167Z,99813.77
2019-03-03T18:56:00.719Z,99809.05
2019-03-03T18:58:29.301Z,99806.79
2019-03-03T19:00:57.949Z,99805.05
2019-03-03T19:03:26.546Z,99803.21
2019-03-03T19:05:56.163Z,99805.69
2019-03-03T19:08:25.526Z,99802.70
2019-03-03T19:10:54.140Z,99803.84
2019-03-03T19:13:22.763Z,99803.66
2019-03-03T19:15:51.771Z,99801.95
2019-03-03T19:18:20.435Z,99798.74
2019-03-03T19:20:49.047Z,99803.19
2019-03-03T19:23:17.683Z,99788.02
2019-03-03T19:25:46.360Z,99791.20
2019-03-03T19:28:14.950Z,99790.38
2019-03-03T19:30:43.608Z,99786.09
2019-03-03T19:33:51.084Z,99779.33
2019-03-03T19:36:20.225Z,99776.55
2019-03-03T19:39:08.255Z,99783.52
2019-03-03T19:41:36.953Z,99772.67
2019-03-03T19:44:05.599Z,99774.52
2019-03-03T19:47:14.188Z,99763.03
2019-03-03T19:49:42.789Z,99756.17
2019-03-03T19:52:11.479Z,99762.61
2019-03-03T19:57:32.217Z,99756.17
2019-03-03T20:00:00.813Z,99749.52
2019-03-03T20:02:38.193Z,99744.19
2019-03-03T20:05:47.004Z,99744.28
2019-03-03T20:08:15.678Z,99745.10
2019-03-03T20:10:44.288Z,99739.97
2019-03-03T20:13:12.821Z,99740.47
2019-03-03T20:15:41.542Z,99743.77
2019-03-03T20:18:50.151Z,99741.73
2019-03-03T20:21:18.775Z,99737.73
2019-03-03T20:23:47.453Z,99736.31
2019-03-03T20:26:16.008Z,99737.95
2019-03-03T20:28:44.553Z,99731.92
2019-03-03T20:31:13.110Z,99730.79
2019-03-03T20:33:41.673Z,99730.28
2019-03-03T20:36:10.355Z,99725.45
2019-03-03T20:38:38.952Z,99726.22
2019-03-03T20:41:07.974Z,99716.88
2019-03-03T20:51:56.578Z,99717.92
2019-03-03T20:57:33.664Z,99705.73
2019-03-03T21:00:02.332Z,99702.33
2019-03-03T21:02:31.719Z,99698.84
2019-03-03T21:07:51.649Z,99691.94
2019-03-03T21:15:24.008Z,99669.98
2019-03-03T21:17:52.648Z,99667.95
2019-03-03T21:21:01.128Z,99666.90
2019-03-03T21:23:29.698Z,99674.70
2019-03-03T21:25:58.241Z,99668.98
2019-03-03T21:28:26.949Z,99667.45
2019-03-03T21:30:55.534Z,99665.19
2019-03-03T21:33:24.871Z,99657.19
2019-03-03T21:36:33.408Z,99659.23
2019-03-03T21:39:01.962Z,99648.68
2019-03-03T21:41:30.773Z,99656.68
2019-03-03T21:49:30.626Z,99635.03
2019-03-03T21:51:59.187Z,99646.52
2019-03-03T21:54:28.407Z,99633.50
2019-03-03T21:56:56.957Z,99626.02
2019-03-03T21:59:25.625Z,99630.02
2019-03-03T22:01:54.612Z,99627.34
2019-03-03T22:04:23.186Z,99633.19
2019-03-03T22:06:51.780Z,99627.66
2019-03-03T22:09:20.770Z,99626.02
2019-03-03T22:14:45.013Z,99621.70
2019-03-03T22:17:13.983Z,99606.44
2019-03-03T22:23:05.105Z,99597.59
2019-03-03T22:28:04.706Z,99611.03
2019-03-03T22:30:33.324Z,99608.44
2019-03-03T22:33:02.002Z,99600.64
2019-03-03T22:35:30.643Z,99588.95
